Time;durP1;ratioP1;P1;durP2;ratioP2;P2;SDS_P1;SDS_P2;PMS_P1;PMS_P2;Temp;Humidity;BMP_temperature;BMP_pressure;BME280_temperature;BME280_humidity;BME280_pressure;Samples;Min_cycle;Max_cycle;Signal;HPM_P1;HPM_P2
2022/12/01 00:01:06;;;;;;;;;49.50;43.25;;;;;8.40;73.42;102167.28;5097176;27;46033;-56
2022/12/01 00:03:32;;;;;;;;;69.50;44.50;;;;;8.38;73.59;102175.31;5097208;27;45335;-56
2022/12/01 00:06:18;;;;;;;;;50.50;40.75;;;;;8.40;72.96;102169.94;5097473;27;45310;-57
2022/12/01 00:11:30;;;;;;;;;63.00;41.00;;;;;8.38;73.34;102177.13;5097484;27;45451;-57
2022/12/01 00:13:55;;;;;;;;;53.25;41.50;;;;;8.35;73.04;102169.34;5097664;27;45345;-57
2022/12/01 00:16:20;;;;;;;;;59.25;39.50;;;;;8.32;73.32;102170.38;5097575;27;45316;-55
2022/12/01 00:18:52;;;;;;;;;61.25;43.00;;;;;8.30;73.33;102171.41;5097880;27;45401;-56
2022/12/01 00:21:19;;;;;;;;;56.00;39.25;;;;;8.27;73.54;102166.31;5097601;27;45993;-57
2022/12/01 00:23:46;;;;;;;;;58.00;42.50;;;;;8.26;74.03;102168.13;5097285;27;45322;-56
2022/12/01 00:26:12;;;;;;;;;58.75;41.00;;;;;8.27;73.78;102164.53;5097927;27;45511;-57
2022/12/01 00:28:38;;;;;;;;;63.75;43.50;;;;;8.28;72.84;102173.31;5101171;27;45317;-56
2022/12/01 00:31:07;;;;;;;;;57.25;40.75;;;;;8.23;73.04;102171.81;5100598;27;45441;-56
2022/12/01 00:33:33;;;;;;;;;64.25;43.50;;;;;8.28;73.48;102175.97;5100781;27;45227;-57
2022/12/01 00:35:59;;;;;;;;;57.75;39.75;;;;;8.22;72.82;102170.13;5100477;27;45279;-57
2022/12/01 00:38:25;;;;;;;;;55.25;38.25;;;;;8.24;72.62;102165.56;5100670;27;45376;-56
2022/12/01 00:40:50;;;;;;;;;60.25;41.50;;;;;8.20;72.69;102169.34;5099263;27;46310;-56
2022/12/01 00:43:15;;;;;;;;;55.00;40.00;;;;;8.15;72.29;102170.59;5100432;27;45444;-57
2022/12/01 00:45:42;;;;;;;;;47.00;38.25;;;;;8.07;72.58;102168.41;5100504;27;45451;-57
2022/12/01 00:48:08;;;;;;;;;47.75;31.00;;;;;8.04;72.26;102168.59;5100559;27;45394;-57
2022/12/01 00:50:33;;;;;;;;;52.25;40.50;;;;;8.00;72.77;102169.72;5100196;27;46279;-57
2022/12/01 00:52:58;;;;;;;;;80.00;53.25;;;;;7.99;72.80;102163.59;5100361;27;45381;-56
2022/12/01 00:55:24;;;;;;;;;63.25;43.75;;;;;7.97;72.98;102162.00;5100429;27;45369;-56
2022/12/01 00:57:49;;;;;;;;;64.75;43.00;;;;;7.97;72.66;102162.00;5100715;27;45417;-58
2022/12/01 01:00:16;;;;;;;;;53.00;42.50;;;;;7.96;72.83;102161.16;5099957;27;45408;-55
2022/12/01 01:02:41;;;;;;;;;60.25;39.50;;;;;7.84;72.29;102148.66;5099979;27;45309;-56
2022/12/01 01:05:07;;;;;;;;;51.50;35.00;;;;;7.92;72.61;102166.72;5100125;27;45507;-56
2022/12/01 01:07:32;;;;;;;;;56.75;40.50;;;;;7.91;72.00;102165.00;5100136;27;45474;-56
2022/12/01 01:09:58;;;;;;;;;44.75;37.25;;;;;7.92;71.95;102174.66;5099864;27;47287;-56
2022/12/01 01:12:23;;;;;;;;;46.75;40.75;;;;;7.87;71.79;102163.50;5099856;27;45361;-57
2022/12/01 01:14:48;;;;;;;;;43.50;29.25;;;;;7.87;72.30;102166.16;5100124;27;45418;-56
2022/12/01 01:17:14;;;;;;;;;43.75;31.00;;;;;7.89;72.05;102161.63;5100259;27;45340;-55
2022/12/01 01:19:39;;;;;;;;;52.00;39.00;;;;;7.87;72.67;102174.09;5099715;27;46276;-54
2022/12/01 01:22:04;;;;;;;;;51.00;37.50;;;;;7.85;71.93;102168.06;5099778;27;45244;-55
2022/12/01 01:24:30;;;;;;;;;58.00;39.50;;;;;7.84;72.48;102167.22;5099886;27;45650;-57
2022/12/01 01:26:55;;;;;;;;;57.75;40.50;;;;;7.83;72.64;102170.78;5099975;27;45330;-57
2022/12/01 01:29:20;;;;;;;;;59.00;44.50;;;;;7.81;72.27;102167.38;5099742;27;45266;-57
2022/12/01 01:31:46;;;;;;;;;59.50;42.25;;;;;7.78;72.07;102177.31;5099714;27;45219;-56
2022/12/01 01:34:11;;;;;;;;;50.25;39.00;;;;;7.75;72.60;102173.91;5099984;27;45294;-55
2022/12/01 01:36:37;;;;;;;;;58.25;39.00;;;;;7.71;72.78;102172.41;5099913;27;45282;-56
2022/12/01 01:39:03;;;;;;;;;52.00;38.00;;;;;7.71;72.18;102187.41;5098882;27;45945;-55
2022/12/01 01:41:29;;;;;;;;;47.00;34.50;;;;;7.71;72.51;102182.13;5099688;27;45334;-57
2022/12/01 01:44:02;;;;;;;;;55.75;36.75;;;;;7.70;72.58;102175.97;5099416;27;45306;-57
2022/12/01 01:46:33;;;;;;;;;54.75;38.50;;;;;7.37;72.65;102131.19;5099496;27;45412;-56
2022/12/01 01:49:03;;;;;;;;;57.00;39.75;;;;;7.72;72.27;102190.00;5099281;27;46037;-56
2022/12/01 01:51:52;;;;;;;;;53.75;41.25;;;;;7.65;72.22;102183.34;5099118;27;45467;-57
2022/12/01 01:54:30;;;;;;;;;54.75;39.75;;;;;7.72;71.97;102199.75;5099404;27;45247;-56
2022/12/01 01:56:58;;;;;;;;;54.00;42.00;;;;;7.37;71.86;102143.56;5099483;27;45314;-56
2022/12/01 01:59:28;;;;;;;;;55.25;44.25;;;;;7.70;72.37;102201.59;5099183;27;45417;-55
2022/12/01 02:02:05;;;;;;;;;57.25;42.75;;;;;7.72;72.45;102194.44;5098986;27;45311;-55
2022/12/01 02:04:33;;;;;;;;;65.75;44.75;;;;;7.73;72.30;102196.97;5097668;27;45326;-57
2022/12/01 02:06:59;;;;;;;;;60.25;44.25;;;;;7.73;71.99;102183.75;5098998;27;45390;-55
2022/12/01 02:09:24;;;;;;;;;55.25;40.50;;;;;7.78;72.28;102177.31;5098954;27;46221;-56
2022/12/01 02:11:54;;;;;;;;;48.50;41.50;;;;;7.75;72.81;102179.22;5098964;27;45361;-56
2022/12/01 02:14:49;;;;;;;;;49.00;33.50;;;;;7.80;71.50;102175.44;5099120;27;45290;-56
2022/12/01 02:17:29;;;;;;;;;52.75;38.00;;;;;7.81;71.71;102179.78;5035843;28;45297;-55
2022/12/01 02:20:19;;;;;;;;;56.50;38.25;;;;;7.81;71.92;102179.78;5035610;28;45450;-57
2022/12/01 02:23:00;;;;;;;;;52.25;40.50;;;;;7.72;71.59;102160.00;5036006;28;45333;-56
2022/12/01 02:25:32;;;;;;;;;51.75;39.75;;;;;7.87;71.88;102166.16;5035966;28;45377;-56
2022/12/01 02:28:16;;;;;;;;;47.25;37.50;;;;;7.86;71.67;102177.69;5035775;28;45341;-56
2022/12/01 02:30:47;;;;;;;;;49.75;36.75;;;;;7.89;71.21;102174.88;5035293;28;45491;-57
2022/12/01 02:33:15;;;;;;;;;55.00;36.25;;;;;7.89;70.98;102169.56;5035441;28;45297;-55
2022/12/01 02:36:02;;;;;;;;;51.25;39.50;;;;;7.89;71.59;102169.56;5035832;28;45367;-54
2022/12/01 02:38:34;;;;;;;;;46.50;34.00;;;;;7.89;71.27;102173.06;5036015;28;45518;-55
2022/12/01 02:41:18;;;;;;;;;44.75;37.50;;;;;7.90;70.06;102173.91;5035810;28;46675;-55
2022/12/01 02:43:59;;;;;;;;;44.25;33.25;;;;;7.89;70.18;102172.22;5035580;28;45396;-59
2022/12/01 02:46:33;;;;;;;;;47.00;35.75;;;;;7.89;70.79;102172.22;5035080;28;45511;-56
2022/12/01 02:49:06;;;;;;;;;43.50;29.00;;;;;7.86;70.59;102161.81;5035550;28;45522;-55
2022/12/01 02:51:34;;;;;;;;;40.50;35.50;;;;;7.80;71.05;102149.78;5034328;28;46208;-58
2022/12/01 02:54:02;;;;;;;;;54.25;37.00;;;;;7.90;71.55;102165.97;5075617;27;45376;-56
2022/12/01 02:56:27;;;;;;;;;44.00;36.75;;;;;7.85;71.26;102162.75;5098136;27;45361;-54
2022/12/01 02:58:53;;;;;;;;;56.00;38.75;;;;;7.90;71.50;102168.63;5098463;27;45384;-57
2022/12/01 03:01:43;;;;;;;;;52.25;36.00;;;;;7.93;70.57;102168.44;5098231;27;45498;-55
2022/12/01 03:04:50;;;;;;;;;42.75;36.00;;;;;7.95;71.66;102175.31;5098048;27;45445;-57
2022/12/01 03:07:34;;;;;;;;;47.75;37.00;;;;;7.95;71.01;102159.44;5034850;28;45522;-56
2022/12/01 03:10:13;;;;;;;;;26.25;22.00;;;;;7.95;71.31;102163.88;5035125;28;45650;-56
2022/12/01 03:12:44;;;;;;;;;48.00;32.50;;;;;7.96;70.90;102170.88;5034884;28;45566;-56
2022/12/01 03:15:39;;;;;;;;;55.50;36.50;;;;;7.95;70.57;102167.38;5034922;28;45474;-57
2022/12/01 03:18:10;;;;;;;;;41.50;33.75;;;;;7.94;71.51;102157.72;4936814;28;45467;-57
2022/12/01 03:20:51;;;;;;;;;55.25;43.00;;;;;7.85;70.86;102153.00;4937202;28;45525;-55
2022/12/01 03:23:22;;;;;;;;;47.25;35.00;;;;;7.87;70.64;102159.03;4936376;28;46446;-55
2022/12/01 03:25:51;;;;;;;;;52.25;41.75;;;;;7.87;70.73;102161.69;4936494;28;45400;-55
2022/12/01 03:28:20;;;;;;;;;50.75;36.25;;;;;7.83;70.95;102151.38;4936598;28;45386;-55
2022/12/01 03:30:50;;;;;;;;;50.75;36.50;;;;;7.79;71.57;102150.72;4936707;28;45332;-53
2022/12/01 03:33:24;;;;;;;;;49.25;40.50;;;;;7.78;71.40;102145.53;4936480;28;46499;-54
2022/12/01 03:36:05;;;;;;;;;40.00;35.25;;;;;7.79;71.57;102163.09;4936435;28;45439;-54
2022/12/01 03:38:34;;;;;;;;;53.50;41.00;;;;;7.78;71.01;102164.06;4936406;28;45570;-55
2022/12/01 03:41:09;;;;;;;;;49.75;38.25;;;;;7.75;71.41;102155.38;4936533;28;45679;-54
2022/12/01 03:43:40;;;;;;;;;53.75;41.00;;;;;7.78;71.75;102162.25;4952012;28;46062;-55
2022/12/01 03:46:18;;;;;;;;;54.25;33.50;;;;;7.78;71.45;102162.25;5014352;28;45641;-54
2022/12/01 03:48:44;;;;;;;;;56.25;39.25;;;;;7.75;71.32;102162.44;5014604;28;45495;-54
2022/12/01 03:51:33;;;;;;;;;56.50;42.00;;;;;7.72;71.37;102166.16;5014786;28;45372;-54
2022/12/01 03:54:08;;;;;;;;;53.75;37.50;;;;;7.72;72.17;102173.25;5017630;27;46202;-56
2022/12/01 03:56:45;;;;;;;;;52.50;41.75;;;;;7.62;71.31;102150.91;5097344;27;45420;-54
2022/12/01 03:59:13;;;;;;;;;51.00;38.00;;;;;7.65;71.28;102161.31;5097342;27;45280;-55
2022/12/01 04:01:38;;;;;;;;;53.00;37.50;;;;;7.68;71.72;102167.28;5100554;27;45392;-55
2022/12/01 04:04:10;;;;;;;;;43.25;36.25;;;;;7.68;71.63;102164.63;5103890;27;45347;-57
2022/12/01 04:06:38;;;;;;;;;54.75;39.00;;;;;7.67;71.73;102162.94;5103986;27;45203;-55
2022/12/01 04:09:03;;;;;;;;;58.00;42.50;;;;;7.68;71.95;102163.78;5104048;27;45463;-54
2022/12/01 04:14:13;;;;;;;;;66.00;42.50;;;;;7.68;71.73;102147.88;5103958;27;45758;-54
2022/12/01 04:16:39;;;;;;;;;65.00;42.25;;;;;7.68;72.48;102150.53;5103962;27;45314;-53
2022/12/01 04:19:04;;;;;;;;;52.50;40.75;;;;;7.65;72.05;102140.13;5104014;27;45411;-55
2022/12/01 04:21:30;;;;;;;;;54.75;37.00;;;;;7.68;71.62;102155.84;5104247;27;45493;-55
2022/12/01 04:24:01;;;;;;;;;56.00;39.00;;;;;7.67;72.54;102148.84;5103649;27;45346;-53
2022/12/01 04:26:28;;;;;;;;;48.50;40.00;;;;;7.66;71.24;102153.25;5103969;27;45400;-54
2022/12/01 04:28:54;;;;;;;;;54.50;41.50;;;;;7.66;71.81;102153.25;5103892;27;45365;-54
2022/12/01 04:31:19;;;;;;;;;53.50;41.25;;;;;7.65;71.90;102156.88;5104237;27;45393;-54
2022/12/01 04:33:44;;;;;;;;;44.50;35.50;;;;;7.66;71.81;102152.41;5103698;27;45460;-55
2022/12/01 04:36:10;;;;;;;;;48.50;39.50;;;;;7.66;71.87;102161.22;5103777;27;45235;-57
2022/12/01 04:38:38;;;;;;;;;60.75;40.00;;;;;7.65;71.53;102162.16;5103942;27;45518;-52
2022/12/01 04:41:11;;;;;;;;;60.00;40.00;;;;;7.62;71.71;102157.03;5103977;27;45350;-55
2022/12/01 04:43:36;;;;;;;;;59.75;43.75;;;;;7.62;71.76;102156.19;5103677;27;45388;-53
2022/12/01 04:46:03;;;;;;;;;51.25;39.75;;;;;7.65;71.71;102158.66;5101875;27;45409;-54
2022/12/01 04:48:28;;;;;;;;;62.00;40.00;;;;;7.65;71.99;102161.31;5103699;27;45327;-54
2022/12/01 04:50:54;;;;;;;;;64.00;44.25;;;;;7.65;71.18;102162.16;5103837;27;45420;-54
2022/12/01 04:53:19;;;;;;;;;55.75;41.50;;;;;7.62;71.78;102154.38;5103432;27;46238;-54
2022/12/01 04:55:44;;;;;;;;;64.25;43.75;;;;;7.61;72.25;102158.00;5103678;27;45180;-55
2022/12/01 04:58:10;;;;;;;;;51.00;41.50;;;;;7.54;71.98;102150.50;5103651;27;45424;-55
2022/12/01 05:00:36;;;;;;;;;41.75;35.25;;;;;7.55;71.75;102161.03;5103926;27;45353;-55
2022/12/01 05:03:02;;;;;;;;;52.00;40.25;;;;;7.53;71.55;102173.50;5103357;27;47110;-53
2022/12/01 05:05:28;;;;;;;;;50.00;38.00;;;;;7.52;71.69;102171.78;5102631;27;45350;-54
2022/12/01 05:07:53;;;;;;;;;52.50;39.50;;;;;7.20;71.54;102118.09;5103339;27;45459;-52
2022/12/01 05:10:18;;;;;;;;;56.00;39.00;;;;;7.45;71.84;102167.81;5103637;27;45346;-56
2022/12/01 05:12:47;;;;;;;;;55.50;41.00;;;;;7.38;72.14;102150.59;5100959;27;46227;-55
2022/12/01 05:15:13;;;;;;;;;48.50;40.00;;;;;7.42;71.74;102155.63;5099948;27;45429;-55
2022/12/01 05:17:38;;;;;;;;;60.75;37.00;;;;;7.46;71.75;102174.81;5099765;27;45211;-54
2022/12/01 05:22:51;;;;;;;;;51.75;39.00;;;;;7.45;71.47;102171.28;5099753;27;45401;-58
2022/12/01 05:25:17;;;;;;;;;55.00;40.25;;;;;7.46;71.91;102166.88;5099421;27;45604;-54
2022/12/01 05:27:42;;;;;;;;;51.00;37.50;;;;;7.45;71.69;102170.44;5099704;27;45325;-53
2022/12/01 05:30:08;;;;;;;;;53.75;35.00;;;;;7.45;71.96;102159.84;5100082;27;45338;-54
2022/12/01 05:32:33;;;;;;;;;47.00;37.50;;;;;7.43;71.26;102169.69;5099459;27;45440;-55
2022/12/01 05:34:58;;;;;;;;;50.50;37.25;;;;;7.40;72.00;102156.63;5099503;27;45356;-55
2022/12/01 05:37:24;;;;;;;;;51.00;40.75;;;;;7.32;71.59;102149.16;5099769;27;45285;-56
2022/12/01 05:39:49;;;;;;;;;51.75;41.00;;;;;7.40;71.18;102162.78;5099906;27;45356;-55
2022/12/01 05:42:14;;;;;;;;;47.75;38.75;;;;;7.42;71.23;102157.41;5099501;27;45367;-54
2022/12/01 05:44:40;;;;;;;;;54.25;35.00;;;;;7.41;71.07;102158.34;5099396;27;45453;-54
2022/12/01 05:47:05;;;;;;;;;52.50;36.00;;;;;7.40;71.89;102154.00;5099305;27;45362;-54
2022/12/01 05:49:30;;;;;;;;;52.25;37.00;;;;;7.42;70.82;102168.00;5099759;27;45420;-56
2022/12/01 05:51:56;;;;;;;;;41.50;36.25;;;;;7.40;71.44;102160.13;5099532;27;45330;-55
2022/12/01 05:54:21;;;;;;;;;53.25;38.00;;;;;7.40;71.36;102173.38;5099144;27;45451;-54
2022/12/01 05:56:46;;;;;;;;;49.75;35.25;;;;;7.39;71.08;102168.19;5099497;27;45457;-54
2022/12/01 05:59:12;;;;;;;;;56.75;42.25;;;;;7.39;71.18;102178.78;5099706;27;45451;-53
2022/12/01 06:01:37;;;;;;;;;52.00;39.00;;;;;7.37;70.96;102175.34;5099053;27;46604;-52
2022/12/01 06:04:02;;;;;;;;;45.00;33.50;;;;;7.37;70.55;102175.34;5100322;27;45451;-56
2022/12/01 06:06:28;;;;;;;;;42.50;33.50;;;;;7.35;71.17;102180.75;5100130;27;45179;-55
2022/12/01 06:08:53;;;;;;;;;50.00;37.00;;;;;7.33;70.64;102171.16;5100121;27;45508;-56
2022/12/01 06:11:18;;;;;;;;;45.75;38.75;;;;;7.34;71.11;102172.91;5099443;27;46071;-55
2022/12/01 06:13:44;;;;;;;;;61.00;39.50;;;;;7.31;70.81;102175.72;5098785;27;45406;-54
2022/12/01 06:16:09;;;;;;;;;47.75;40.25;;;;;7.32;70.56;102180.06;5099107;27;45309;-55
2022/12/01 06:18:37;;;;;;;;;51.00;36.50;;;;;7.31;71.59;102181.84;5099308;27;45368;-53
2022/12/01 06:21:04;;;;;;;;;44.50;30.75;;;;;7.32;71.31;102170.31;5098764;27;46064;-55
2022/12/01 06:23:30;;;;;;;;;48.50;35.25;;;;;7.32;70.98;102170.31;5098752;27;45329;-54
2022/12/01 06:25:55;;;;;;;;;47.25;33.75;;;;;7.34;71.26;102168.47;5098646;27;45304;-60
2022/12/01 06:28:20;;;;;;;;;49.50;39.75;;;;;7.37;71.05;102183.28;5098947;27;45316;-54
2022/12/01 06:30:46;;;;;;;;;51.25;35.25;;;;;7.39;70.69;102186.72;5098634;27;46994;-53
2022/12/01 06:33:11;;;;;;;;;49.50;35.00;;;;;7.36;71.33;102181.59;5098548;27;45554;-55
2022/12/01 06:35:37;;;;;;;;;44.75;34.50;;;;;7.35;70.89;102174.59;5098932;27;45393;-56
2022/12/01 06:38:03;;;;;;;;;59.50;39.25;;;;;7.37;70.19;102175.34;5098757;27;45385;-55
2022/12/01 06:40:28;;;;;;;;;44.75;35.00;;;;;7.35;70.58;102178.09;5098436;27;46066;-54
2022/12/01 06:42:54;;;;;;;;;55.75;37.75;;;;;7.33;70.32;102185.28;5098647;27;45401;-55
2022/12/01 06:45:19;;;;;;;;;50.25;39.50;;;;;7.30;70.30;102180.16;5098395;27;45332;-55
2022/12/01 06:47:47;;;;;;;;;49.25;34.50;;;;;7.29;70.40;102181.13;5098752;27;45515;-55
2022/12/01 06:50:12;;;;;;;;;48.25;34.50;;;;;7.26;70.52;102191.88;5096540;27;45286;-53
2022/12/01 06:52:38;;;;;;;;;48.75;39.50;;;;;7.16;70.58;102180.97;5098512;27;45353;-56
2022/12/01 06:55:04;;;;;;;;;50.00;37.50;;;;;7.17;70.98;102187.97;5098643;27;45483;-56
2022/12/01 06:57:30;;;;;;;;;50.00;36.50;;;;;7.15;70.54;102189.84;5098696;27;45319;-56
2022/12/01 06:59:55;;;;;;;;;42.25;36.50;;;;;7.14;71.01;102185.50;5098210;27;47132;-56
2022/12/01 07:02:20;;;;;;;;;47.75;39.50;;;;;7.12;70.66;102191.81;5098088;27;45321;-53
2022/12/01 07:04:46;;;;;;;;;49.50;30.50;;;;;7.05;71.08;102188.69;5098336;27;45394;-52
2022/12/01 07:07:11;;;;;;;;;65.75;49.25;;;;;7.00;70.13;102193.38;5098377;27;45408;-52
2022/12/01 07:09:37;;;;;;;;;59.25;37.75;;;;;7.03;71.39;102210.88;5097666;27;46921;-51
2022/12/01 07:12:03;;;;;;;;;47.75;37.00;;;;;7.02;70.85;102215.31;5096723;27;45256;-51
2022/12/01 07:14:30;;;;;;;;;48.50;35.25;;;;;6.98;71.57;102204.03;5097799;27;45381;-59
2022/12/01 07:16:56;;;;;;;;;45.25;35.75;;;;;7.04;71.85;102224.03;5098096;27;45238;-58
2022/12/01 07:19:21;;;;;;;;;61.75;38.00;;;;;7.05;71.66;102223.06;5097962;27;45337;-58
2022/12/01 07:21:46;;;;;;;;;56.50;39.50;;;;;7.08;71.75;102214.97;5097780;27;45448;-58
2022/12/01 07:24:12;;;;;;;;;38.75;30.50;;;;;7.11;71.86;102221.88;5097891;27;45889;-57
2022/12/01 07:26:39;;;;;;;;;41.25;36.25;;;;;7.05;71.66;102217.78;5098265;27;45682;-58
2022/12/01 07:29:04;;;;;;;;;36.50;32.25;;;;;7.02;71.54;102210.00;5097133;27;45465;-59
2022/12/01 07:31:29;;;;;;;;;62.50;40.75;;;;;7.15;70.95;102237.47;5097847;27;45400;-60
2022/12/01 07:33:55;;;;;;;;;51.25;37.75;;;;;7.11;71.33;102225.34;5096779;27;45484;-60
2022/12/01 07:36:20;;;;;;;;;47.50;37.00;;;;;7.17;71.25;102227.66;5097109;27;45314;-55
2022/12/01 07:38:45;;;;;;;;;50.00;33.75;;;;;7.16;70.30;102231.25;5097311;27;45440;-58
2022/12/01 07:41:13;;;;;;;;;56.75;41.75;;;;;7.16;71.21;102241.84;5097492;27;45402;-56
2022/12/01 07:43:39;;;;;;;;;46.50;36.50;;;;;7.15;71.55;102240.13;5097659;27;45402;-55
2022/12/01 07:46:13;;;;;;;;;58.75;41.00;;;;;7.03;70.90;102226.75;5097030;27;45443;-54
2022/12/01 07:48:39;;;;;;;;;47.75;36.25;;;;;7.15;70.31;102242.78;5096252;27;46186;-55
2022/12/01 07:51:10;;;;;;;;;40.50;31.25;;;;;7.12;70.55;102253.56;5094737;27;45431;-55
2022/12/01 07:53:35;;;;;;;;;56.75;37.75;;;;;7.10;71.19;102262.50;5094417;27;45549;-57
2022/12/01 07:56:02;;;;;;;;;46.75;35.75;;;;;7.05;71.17;102257.47;5094670;27;45457;-55
2022/12/01 07:58:28;;;;;;;;;46.00;31.75;;;;;7.09;71.10;102264.31;5094554;27;45512;-56
2022/12/01 08:00:54;;;;;;;;;47.25;30.00;;;;;7.09;71.43;102268.75;5093213;27;45504;-56
2022/12/01 08:03:19;;;;;;;;;46.75;36.50;;;;;7.10;70.59;102266.00;5094515;27;45451;-55
2022/12/01 08:05:45;;;;;;;;;50.00;36.25;;;;;7.11;70.79;102266.84;5094573;27;45464;-55
2022/12/01 08:08:10;;;;;;;;;46.75;38.75;;;;;7.15;70.80;102265.72;5094643;27;45572;-54
2022/12/01 08:10:35;;;;;;;;;47.50;32.25;;;;;7.15;71.55;102273.69;5094391;27;45461;-56
2022/12/01 08:13:01;;;;;;;;;49.50;33.50;;;;;7.17;71.01;102282.41;5094788;27;45454;-55
2022/12/01 08:15:26;;;;;;;;;47.25;34.50;;;;;7.18;70.56;102277.00;5094724;27;45477;-54
2022/12/01 08:17:52;;;;;;;;;44.25;34.50;;;;;7.18;70.66;102274.34;5094293;27;46011;-57
2022/12/01 08:20:17;;;;;;;;;45.25;34.50;;;;;7.17;71.00;102269.16;5094696;27;45504;-56
2022/12/01 08:22:42;;;;;;;;;48.25;34.75;;;;;7.17;71.11;102274.47;5094409;27;45922;-57
2022/12/01 08:25:08;;;;;;;;;51.25;36.50;;;;;7.17;71.17;102274.47;5093023;27;45490;-57
2022/12/01 08:27:34;;;;;;;;;38.75;30.25;;;;;7.16;71.20;102281.53;5094086;27;46237;-56
2022/12/01 08:30:00;;;;;;;;;37.25;24.50;;;;;7.22;71.00;102285.63;5093802;27;45566;-55
2022/12/01 08:32:25;;;;;;;;;42.25;33.00;;;;;7.22;71.13;102280.34;5094351;27;45487;-55
2022/12/01 08:34:51;;;;;;;;;48.25;35.50;;;;;7.22;70.26;102285.63;5094409;27;45374;-55
2022/12/01 08:37:16;;;;;;;;;23.75;14.50;;;;;7.21;71.12;102276.84;5093584;27;45499;-56
2022/12/01 08:39:41;;;;;;;;;41.75;32.00;;;;;7.22;71.19;102285.63;5093830;27;45493;-55
2022/12/01 08:42:07;;;;;;;;;44.00;33.75;;;;;7.21;71.25;102279.50;5094153;27;45412;-58
2022/12/01 08:44:32;;;;;;;;;47.00;32.50;;;;;7.11;71.03;102267.69;5094149;27;45432;-54
2022/12/01 08:46:57;;;;;;;;;43.75;35.00;;;;;7.24;70.32;102284.59;5093888;27;45427;-55
2022/12/01 08:49:23;;;;;;;;;39.75;32.25;;;;;7.27;71.33;102288.00;5096418;27;45466;-55
2022/12/01 08:51:48;;;;;;;;;39.75;30.25;;;;;7.28;71.63;102279.13;5097913;27;45660;-54
2022/12/01 08:54:13;;;;;;;;;44.25;30.00;;;;;7.28;71.52;102282.63;5097836;27;45511;-53
2022/12/01 08:56:42;;;;;;;;;52.75;34.75;;;;;7.29;71.16;102280.81;5096047;27;45530;-53
2022/12/01 08:59:08;;;;;;;;;41.50;30.75;;;;;7.20;70.69;102261.88;5097363;27;45444;-55
2022/12/01 09:01:34;;;;;;;;;39.25;28.00;;;;;7.35;70.18;102286.63;5097285;27;45421;-56
2022/12/01 09:04:04;;;;;;;;;52.00;34.00;;;;;7.39;70.54;102284.66;5095360;27;45498;-54
2022/12/01 09:06:31;;;;;;;;;31.75;22.25;;;;;7.29;70.71;102265.81;5097251;27;45488;-54
2022/12/01 09:08:59;;;;;;;;;32.50;31.25;;;;;7.39;70.55;102284.66;5097041;27;45506;-55
2022/12/01 09:11:25;;;;;;;;;46.50;30.50;;;;;7.41;70.75;102293.34;5097243;27;45952;-54
2022/12/01 09:13:50;;;;;;;;;41.00;27.50;;;;;7.40;70.13;102295.16;5097534;27;45436;-54
2022/12/01 09:16:17;;;;;;;;;39.25;32.50;;;;;7.35;70.51;102283.97;5096233;27;45472;-54
2022/12/01 09:18:44;;;;;;;;;39.75;32.25;;;;;7.39;70.10;102297.91;5096834;27;45426;-54
2022/12/01 09:21:21;;;;;;;;;42.50;29.75;;;;;7.40;69.98;102289.00;5097173;27;45554;-52
2022/12/01 09:23:47;;;;;;;;;32.75;27.75;;;;;7.41;70.30;102290.72;5097311;27;45467;-54
2022/12/01 09:26:17;;;;;;;;;35.75;23.75;;;;;7.40;70.00;102284.56;5096497;27;45392;-56
2022/12/01 09:28:46;;;;;;;;;50.25;33.75;;;;;7.46;70.64;102289.53;5097013;27;45461;-56
2022/12/01 09:31:13;;;;;;;;;36.50;30.25;;;;;7.52;69.95;102293.59;5097132;27;45508;-55
2022/12/01 09:33:38;;;;;;;;;40.50;33.00;;;;;7.55;70.85;102282.84;5096325;27;45357;-56
2022/12/01 09:36:06;;;;;;;;;38.00;30.00;;;;;7.56;69.96;102284.53;5097453;27;45932;-55
2022/12/01 09:38:33;;;;;;;;;37.75;31.50;;;;;7.63;70.11;102288.53;5096436;27;45470;-55
2022/12/01 09:41:08;;;;;;;;;40.50;24.75;;;;;7.65;69.48;102284.00;5096616;27;45447;-55
2022/12/01 09:43:40;;;;;;;;;29.00;25.25;;;;;7.69;69.69;102290.81;5097049;27;45489;-55
2022/12/01 09:46:14;;;;;;;;;34.50;23.50;;;;;7.71;69.88;102296.00;5096489;27;46253;-56
2022/12/01 09:48:46;;;;;;;;;37.00;27.50;;;;;7.70;69.41;102287.22;5096458;27;45476;-54
2022/12/01 09:51:20;;;;;;;;;48.25;32.25;;;;;7.75;69.75;102287.81;5096296;27;45488;-54
2022/12/01 09:53:50;;;;;;;;;30.00;26.75;;;;;7.77;69.51;102286.88;5096718;27;45470;-54
2022/12/01 09:56:22;;;;;;;;;32.00;27.00;;;;;7.75;69.58;102284.28;5096266;27;46091;-54
2022/12/01 09:58:55;;;;;;;;;33.25;29.50;;;;;7.82;69.00;102292.75;5095843;27;45496;-54
2022/12/01 10:01:29;;;;;;;;;41.75;28.25;;;;;7.83;68.50;102291.78;5095986;27;45408;-55
2022/12/01 10:03:59;;;;;;;;;34.50;27.00;;;;;7.85;68.42;102292.56;5096601;27;45391;-56
2022/12/01 10:06:41;;;;;;;;;44.25;33.00;;;;;7.85;68.87;102293.41;5096255;27;46367;-55
2022/12/01 10:09:28;;;;;;;;;66.00;52.25;;;;;7.88;69.41;102290.59;5096275;27;45502;-55
2022/12/01 10:12:00;;;;;;;;;61.75;43.50;;;;;7.86;68.86;102273.94;5096130;27;45858;-55
2022/12/01 10:14:28;;;;;;;;;45.75;30.00;;;;;7.85;68.88;102271.38;5096316;27;45435;-56
2022/12/01 10:17:03;;;;;;;;;26.75;23.00;;;;;7.93;69.41;102277.91;5096029;27;46279;-54
2022/12/01 10:19:39;;;;;;;;;34.00;22.75;;;;;7.91;68.58;102278.94;5095781;27;45496;-54
2022/12/01 10:22:49;;;;;;;;;41.00;34.50;;;;;7.91;68.74;102276.28;5096190;27;45617;-58
2022/12/01 10:25:26;;;;;;;;;33.25;28.25;;;;;7.97;68.33;102273.28;5096008;27;45597;-56
2022/12/01 10:28:32;;;;;;;;;35.75;28.00;;;;;8.01;68.26;102266.88;5094931;27;46122;-56
2022/12/01 10:31:13;;;;;;;;;33.75;25.75;;;;;8.05;68.16;102265.72;5089402;27;46305;-54
2022/12/01 10:33:54;;;;;;;;;36.50;28.75;;;;;8.05;68.11;102254.25;5095993;27;45489;-55
2022/12/01 10:36:21;;;;;;;;;38.00;26.50;;;;;8.10;67.94;102271.59;5096288;27;45488;-57
2022/12/01 10:38:46;;;;;;;;;44.00;28.25;;;;;8.15;67.79;102260.72;5094160;27;46182;-57
2022/12/01 10:41:14;;;;;;;;;45.75;27.50;;;;;8.13;67.54;102255.53;5095374;27;45493;-55
2022/12/01 10:43:50;;;;;;;;;31.75;28.25;;;;;8.21;67.41;102263.81;5095677;27;45377;-55
2022/12/01 10:46:42;;;;;;;;;31.75;24.75;;;;;8.23;67.79;102261.09;5096039;27;45512;-55
2022/12/01 10:49:15;;;;;;;;;36.50;29.50;;;;;8.25;67.74;102261.84;5095419;27;46604;-56
2022/12/01 10:51:49;;;;;;;;;33.00;22.75;;;;;8.28;68.23;102261.66;5095449;27;45621;-56
2022/12/01 10:54:15;;;;;;;;;29.50;25.50;;;;;8.18;67.25;102245.47;5095450;27;45573;-54
2022/12/01 10:56:44;;;;;;;;;31.50;24.75;;;;;8.27;67.82;102240.56;5098469;27;45471;-54
2022/12/01 10:59:21;;;;;;;;;31.50;28.25;;;;;8.29;66.86;102249.25;5098250;27;46085;-54
2022/12/01 11:01:47;;;;;;;;;41.25;31.25;;;;;8.31;67.17;102247.38;5098370;27;45346;-54
2022/12/01 11:04:34;;;;;;;;;35.00;24.75;;;;;8.28;68.19;102244.91;5098250;27;45266;-54
2022/12/01 11:07:00;;;;;;;;;36.25;27.25;;;;;8.25;67.69;102233.53;5098496;27;45507;-53
2022/12/01 11:09:28;;;;;;;;;24.75;21.75;;;;;8.30;67.54;102237.69;5097938;27;46291;-54
2022/12/01 11:12:00;;;;;;;;;37.50;29.25;;;;;8.32;67.50;102239.31;5096473;27;45289;-56
2022/12/01 11:14:43;;;;;;;;;41.25;32.00;;;;;8.36;67.47;102234.69;5098152;27;45374;-53
2022/12/01 11:17:21;;;;;;;;;34.75;27.00;;;;;8.38;67.58;102238.09;5098328;27;45491;-55
2022/12/01 11:19:46;;;;;;;;;43.00;27.00;;;;;8.25;67.18;102214.97;5097588;27;46224;-54
2022/12/01 11:22:27;;;;;;;;;34.50;25.25;;;;;8.38;67.38;102238.94;5097630;27;45317;-53
2022/12/01 11:24:53;;;;;;;;;37.25;26.25;;;;;8.39;67.29;102237.19;5098086;27;45265;-56
2022/12/01 11:27:42;;;;;;;;;38.25;26.00;;;;;8.39;67.74;102235.38;5097969;27;45350;-56
2022/12/01 11:30:26;;;;;;;;;46.25;30.25;;;;;8.40;67.42;102236.22;5097836;27;45481;-55
2022/12/01 11:33:01;;;;;;;;;33.75;24.50;;;;;8.35;67.74;102222.38;5097596;27;45631;-57
2022/12/01 11:35:32;;;;;;;;;36.75;23.25;;;;;8.39;67.43;102230.06;5097815;27;45369;-52